Bradford County (N27)
Towanda, PA
Field Elevation: 730
Lat: 41°44.40N  Long: 76°26.83W
CTAF/Unicom Freq: 122.8000
   
     For Weather-by-Phone, call (570) 265-1024
Weather Advisories
2017-06-24   13:55 Z
Altimeter 29.75" Hg
Wind 290° @ 8 KT
Gusts 15 KT
Visibility 10 SM
Ceiling CLR
Temperature 23° C (73° F)
Dewpoint 13° C (55° F)
Relative Humidity 51%
Density Altitude 2,000 feet
Condensation Altitude 6,000 feet
Wind and Runways
Indicated Runway = 23
Headwind = 4 kt
Crosswind = 7 kt
History
 
 
 
More Info
All DigiWx sites map
NOAA Forecast
 
Airport IQ 5010
(LHV) Lock Haven
(PS81) Robert Packer Hospital
 
about DigiWx
 
FAA Disclaimer: The data displayed is for advisory purposes only and is not to be used for flight planning or operations. For official data, please call (570) 265-1024 to hear the current automated AWOS voice message.
  METAR N27 241355Z AUTO 29008G15KT 10 SM CLR 23/13 A2975